createdAt,value
2023-08-17T00:00:18.710Z,91.6
2023-08-17T00:01:34.999Z,91.7
2023-08-17T00:02:51.315Z,91.7
2023-08-17T00:04:07.607Z,91.7
2023-08-17T00:05:23.916Z,91.5
2023-08-17T00:06:40.182Z,91.5
2023-08-17T00:07:56.498Z,91.5
2023-08-17T00:09:12.790Z,91.6
2023-08-17T00:10:29.076Z,91.6
2023-08-17T00:11:45.371Z,91.5
2023-08-17T00:13:00.689Z,91.5
2023-08-17T00:14:16.976Z,91.4
2023-08-17T00:15:33.274Z,91.4
2023-08-17T00:16:49.546Z,91.4
2023-08-17T00:18:05.872Z,91.5
2023-08-17T00:19:22.157Z,91.7
2023-08-17T00:20:37.469Z,91.8
2023-08-17T00:21:53.767Z,91.8
2023-08-17T00:23:10.045Z,91.9
2023-08-17T00:24:26.351Z,91.9
2023-08-17T00:25:42.638Z,91.9
2023-08-17T00:26:58.929Z,92
2023-08-17T00:28:15.230Z,92.2
2023-08-17T00:29:31.522Z,92.2
2023-08-17T00:30:47.815Z,92.2
2023-08-17T00:32:04.116Z,92.3
2023-08-17T00:33:20.394Z,92.4
2023-08-17T00:34:36.712Z,92.5
2023-08-17T00:35:52.993Z,92.6
2023-08-17T00:37:09.407Z,92.4
2023-08-17T00:38:25.706Z,92.6
2023-08-17T00:39:42.017Z,92.5
2023-08-17T00:40:58.271Z,92.5
2023-08-17T00:42:14.581Z,92.5
2023-08-17T00:43:30.889Z,92.5
2023-08-17T00:44:47.154Z,92.4
2023-08-17T00:46:03.480Z,92.4
2023-08-17T00:47:19.757Z,92.4
2023-08-17T00:48:36.054Z,92.3
2023-08-17T00:49:52.337Z,92.5
2023-08-17T00:51:08.631Z,92.3
2023-08-17T00:52:24.921Z,92.3
2023-08-17T00:53:40.245Z,92.3
2023-08-17T00:54:56.520Z,92.5
2023-08-17T00:56:12.836Z,92.5
2023-08-17T00:57:29.143Z,92.6
2023-08-17T00:58:45.434Z,92.7
2023-08-17T01:00:01.727Z,93
2023-08-17T01:01:18.022Z,93.1
2023-08-17T01:02:34.291Z,93.1
2023-08-17T01:03:50.576Z,93.2
2023-08-17T01:05:06.875Z,93.3
2023-08-17T01:06:23.179Z,93.3
2023-08-17T01:07:39.488Z,93.3
2023-08-17T01:08:55.760Z,93.2
2023-08-17T01:10:11.086Z,93.3
2023-08-17T01:11:27.379Z,93.3
2023-08-17T01:12:43.673Z,93.4
2023-08-17T01:13:59.944Z,93.3
2023-08-17T01:15:16.240Z,93.4
2023-08-17T01:16:32.551Z,93.4
2023-08-17T01:17:48.855Z,93.4
2023-08-17T01:19:05.135Z,93.6
2023-08-17T01:20:21.429Z,93.6
2023-08-17T01:21:37.738Z,93.5
2023-08-17T01:22:54.042Z,93.6
2023-08-17T01:24:10.324Z,93.6
2023-08-17T01:25:26.625Z,93.6
2023-08-17T01:26:41.931Z,93.5
2023-08-17T01:27:58.196Z,93.4
2023-08-17T01:29:14.506Z,93.3
2023-08-17T01:30:30.807Z,93.1
2023-08-17T01:31:47.105Z,93.2
2023-08-17T01:33:03.376Z,93.3
2023-08-17T01:34:19.678Z,93.3
2023-08-17T01:35:35.982Z,93.2
2023-08-17T01:36:52.269Z,93.2
2023-08-17T01:38:08.570Z,93.1
2023-08-17T01:39:24.868Z,93
2023-08-17T01:40:41.167Z,93.1
2023-08-17T01:41:57.445Z,93.2
2023-08-17T01:43:12.742Z,93.2
2023-08-17T01:44:29.058Z,93.4
2023-08-17T01:45:45.358Z,93.5
2023-08-17T01:47:01.645Z,93.6
2023-08-17T01:49:34.233Z,93.5
2023-08-17T01:50:50.517Z,93.7
2023-08-17T01:52:06.810Z,93.6
2023-08-17T01:53:23.097Z,93.7
2023-08-17T01:54:39.397Z,93.7
2023-08-17T01:55:55.686Z,93.7
2023-08-17T01:57:12.003Z,93.8
2023-08-17T01:58:28.285Z,93.9
2023-08-17T01:59:43.589Z,93.7
2023-08-17T02:00:59.898Z,93.8
2023-08-17T02:02:16.170Z,93.9
2023-08-17T02:03:32.475Z,93.7
2023-08-17T02:04:48.767Z,93.7
2023-08-17T02:06:05.063Z,93.9
2023-08-17T02:07:21.358Z,93.8
2023-08-17T02:08:37.650Z,93.9
2023-08-17T02:09:53.945Z,94.1
2023-08-17T02:11:10.234Z,94.1
2023-08-17T02:12:26.528Z,94
2023-08-17T02:13:42.821Z,94.1
2023-08-17T02:14:59.110Z,94.1
2023-08-17T02:16:14.429Z,94.1
2023-08-17T02:17:30.740Z,94.3
2023-08-17T02:18:47.020Z,94.5
2023-08-17T02:20:03.327Z,94.5
2023-08-17T02:21:19.619Z,94.4
2023-08-17T02:22:35.899Z,94
2023-08-17T02:23:52.209Z,93.9
2023-08-17T02:25:08.484Z,93.8
2023-08-17T02:26:24.785Z,93.6
2023-08-17T02:27:41.075Z,93.9
2023-08-17T02:28:57.364Z,94.1
2023-08-17T02:30:13.667Z,94.5
2023-08-17T02:31:29.967Z,94.6
2023-08-17T02:32:45.270Z,94.8
2023-08-17T02:34:01.555Z,94.8
2023-08-17T02:35:17.861Z,94.9
2023-08-17T02:36:34.153Z,94.8
2023-08-17T02:37:50.450Z,95
2023-08-17T02:39:06.734Z,95.1
2023-08-17T02:40:23.035Z,95.2
2023-08-17T02:41:39.328Z,95.2
2023-08-17T02:42:55.628Z,95.3
2023-08-17T02:44:11.905Z,95.3
2023-08-17T02:45:28.212Z,95.3
2023-08-17T02:46:44.494Z,95.3
2023-08-17T02:48:00.796Z,95.3
2023-08-17T02:49:17.103Z,95.6
2023-08-17T02:50:32.389Z,95.5
2023-08-17T02:51:48.701Z,94.9
2023-08-17T02:53:04.992Z,94.4
2023-08-17T02:54:21.272Z,94.1
2023-08-17T02:55:37.590Z,93.5
2023-08-17T02:56:53.879Z,92.5
2023-08-17T02:58:10.170Z,92.4
2023-08-17T02:59:26.463Z,92.3
2023-08-17T03:00:42.747Z,92.2
2023-08-17T03:01:59.053Z,92
2023-08-17T03:03:15.337Z,92.2
2023-08-17T03:04:31.647Z,91.9
2023-08-17T03:05:47.921Z,92.2
2023-08-17T03:07:04.348Z,92.3
2023-08-17T03:08:20.652Z,92
2023-08-17T03:09:36.937Z,92
2023-08-17T03:10:53.000Z,91.9
2023-08-17T03:12:09.523Z,92
2023-08-17T03:13:25.809Z,91.5
2023-08-17T03:14:42.119Z,90.7
2023-08-17T03:15:58.409Z,90.2
2023-08-17T03:17:14.710Z,89.9
2023-08-17T03:18:31.010Z,89.9
2023-08-17T03:19:47.289Z,90
2023-08-17T03:21:03.585Z,90
2023-08-17T03:22:19.884Z,90.1
2023-08-17T03:23:35.194Z,90.4
2023-08-17T03:24:51.490Z,90.6
2023-08-17T03:26:07.788Z,90.7
2023-08-17T03:27:24.076Z,91
2023-08-17T03:28:40.387Z,91.3
2023-08-17T03:29:56.681Z,91.7
2023-08-17T03:31:12.980Z,92
2023-08-17T03:32:29.265Z,92.5
2023-08-17T03:33:45.501Z,92.8
2023-08-17T03:35:01.796Z,93
2023-08-17T03:36:18.100Z,93.4
2023-08-17T03:37:34.401Z,93.3
2023-08-17T03:38:50.654Z,93.3
2023-08-17T03:40:05.910Z,93.3
2023-08-17T03:41:22.146Z,93.3
2023-08-17T03:42:38.398Z,93.2
2023-08-17T03:43:54.673Z,93.2
2023-08-17T03:45:10.977Z,93.4
2023-08-17T03:46:27.237Z,93.4
2023-08-17T03:47:43.461Z,93.8
2023-08-17T03:48:59.718Z,93.8
2023-08-17T03:50:15.950Z,94
2023-08-17T03:51:32.191Z,94.1
2023-08-17T03:52:48.449Z,94.3
2023-08-17T03:54:04.680Z,94.3
2023-08-17T03:55:20.923Z,94.6
2023-08-17T03:56:36.164Z,94.5
2023-08-17T03:57:52.421Z,94.7
2023-08-17T03:59:08.666Z,95.1
2023-08-17T04:00:24.892Z,95
2023-08-17T04:01:41.150Z,95.4
2023-08-17T04:02:57.387Z,95.5
2023-08-17T04:04:13.610Z,95.6
2023-08-17T04:05:29.857Z,95.4
2023-08-17T04:06:46.094Z,95.3
2023-08-17T04:08:02.336Z,94.8
2023-08-17T04:09:18.580Z,94.8
2023-08-17T04:10:34.815Z,94.7
2023-08-17T04:11:51.071Z,94.7
2023-08-17T04:13:06.312Z,94.6
2023-08-17T04:14:22.554Z,94.7
2023-08-17T04:15:38.801Z,94.8
2023-08-17T04:16:55.049Z,94.9
2023-08-17T04:18:11.278Z,94.4
2023-08-17T04:19:27.534Z,94.2
2023-08-17T04:20:43.763Z,94.1
2023-08-17T04:22:00.002Z,94.2
2023-08-17T04:23:16.244Z,94.2
2023-08-17T04:24:32.489Z,94.4
2023-08-17T04:25:48.715Z,94.5
2023-08-17T04:27:04.970Z,94.7
2023-08-17T04:28:21.198Z,94.7
2023-08-17T04:29:36.462Z,95.3
2023-08-17T04:30:52.694Z,95.6
2023-08-17T04:32:08.936Z,95.9
2023-08-17T04:33:25.186Z,96.7
2023-08-17T04:34:41.424Z,97.2
2023-08-17T04:35:56.676Z,97.5
2023-08-17T04:37:12.913Z,97.4
2023-08-17T04:38:29.162Z,97.7
2023-08-17T04:39:45.416Z,97.6
2023-08-17T04:41:01.640Z,97.2
2023-08-17T04:42:17.882Z,97
2023-08-17T04:43:34.123Z,97
2023-08-17T04:44:50.370Z,97
2023-08-17T04:46:06.000Z,97.5
2023-08-17T04:47:22.846Z,97.5
2023-08-17T04:48:39.094Z,98
2023-08-17T04:49:55.336Z,98.6
2023-08-17T04:51:11.572Z,99.2
2023-08-17T04:52:26.814Z,100
2023-08-17T04:53:43.067Z,100
2023-08-17T04:54:59.307Z,100
2023-08-17T04:56:15.000Z,100
2023-08-17T04:57:31.775Z,100
2023-08-17T04:58:48.000Z,100
2023-08-17T05:00:04.270Z,100
2023-08-17T05:01:20.000Z,100
2023-08-17T05:02:36.751Z,100
2023-08-17T05:03:53.007Z,100
2023-08-17T05:05:09.000Z,100
2023-08-17T05:06:25.000Z,100
2023-08-17T05:07:41.702Z,100
2023-08-17T05:08:58.089Z,100
2023-08-17T05:10:14.310Z,100
2023-08-17T05:11:30.556Z,100
2023-08-17T05:12:46.786Z,100
2023-08-17T05:14:03.025Z,100
2023-08-17T05:15:19.278Z,100
2023-08-17T05:16:35.000Z,100
2023-08-17T05:17:51.752Z,100
2023-08-17T05:19:07.993Z,100
2023-08-17T05:20:24.230Z,100
2023-08-17T05:21:40.477Z,100
2023-08-17T05:22:56.711Z,100
2023-08-17T05:24:12.943Z,100
2023-08-17T05:25:28.204Z,100
2023-08-17T05:26:44.440Z,100
2023-08-17T05:28:00.697Z,100
2023-08-17T05:29:16.927Z,100
2023-08-17T05:30:33.159Z,100
2023-08-17T05:31:49.428Z,100
2023-08-17T05:33:05.654Z,100
2023-08-17T05:34:21.894Z,100
2023-08-17T05:35:38.121Z,100
2023-08-17T05:36:54.364Z,100
2023-08-17T05:38:10.613Z,100
2023-08-17T05:39:26.843Z,100
2023-08-17T05:40:43.091Z,100
2023-08-17T05:41:58.342Z,100
2023-08-17T05:43:14.588Z,100
2023-08-17T05:44:30.821Z,100
2023-08-17T05:45:47.078Z,100
2023-08-17T05:47:03.301Z,100
2023-08-17T05:48:19.543Z,100
2023-08-17T05:49:35.787Z,100
2023-08-17T05:50:52.019Z,100
2023-08-17T05:52:08.264Z,100
2023-08-17T05:53:24.499Z,100
2023-08-17T05:54:40.742Z,100
2023-08-17T05:55:56.982Z,100
2023-08-17T05:57:13.220Z,100
2023-08-17T05:58:28.471Z,100
2023-08-17T05:59:44.726Z,100
2023-08-17T06:01:00.955Z,100
2023-08-17T06:02:17.192Z,100
2023-08-17T06:03:33.445Z,100
2023-08-17T06:04:49.671Z,100
2023-08-17T06:06:05.903Z,100
2023-08-17T06:07:22.164Z,100
2023-08-17T06:08:38.388Z,100
2023-08-17T06:09:54.643Z,100
2023-08-17T06:11:10.876Z,100
2023-08-17T06:12:27.117Z,100
2023-08-17T06:13:43.354Z,100
2023-08-17T06:14:58.613Z,100
2023-08-17T06:16:14.846Z,100
2023-08-17T06:17:31.088Z,100
2023-08-17T06:18:47.335Z,100
2023-08-17T06:20:03.570Z,100
2023-08-17T06:21:19.814Z,100
2023-08-17T06:22:36.057Z,100
2023-08-17T06:23:52.287Z,100
2023-08-17T06:25:08.549Z,100
2023-08-17T06:26:24.762Z,100
2023-08-17T06:27:41.003Z,100
2023-08-17T06:28:57.247Z,100
2023-08-17T06:30:13.484Z,100
2023-08-17T06:31:28.738Z,100
2023-08-17T06:32:44.993Z,100
2023-08-17T06:34:01.227Z,100
2023-08-17T06:35:17.465Z,100
2023-08-17T06:36:33.709Z,100
2023-08-17T06:37:49.949Z,100
2023-08-17T06:39:06.194Z,100
2023-08-17T06:40:22.420Z,100
2023-08-17T06:41:38.668Z,100
2023-08-17T06:42:54.897Z,100
2023-08-17T06:44:11.141Z,100
2023-08-17T06:45:27.381Z,100
2023-08-17T06:46:43.635Z,100
2023-08-17T06:47:58.000Z,100
2023-08-17T06:49:15.000Z,100
2023-08-17T06:50:31.371Z,100
2023-08-17T06:51:47.605Z,100
2023-08-17T06:53:03.840Z,100
2023-08-17T06:54:20.079Z,100
2023-08-17T06:55:36.333Z,100
2023-08-17T06:56:52.562Z,100
2023-08-17T06:58:08.802Z,100
2023-08-17T06:59:25.041Z,100
2023-08-17T07:00:41.282Z,100
2023-08-17T07:01:57.524Z,100
2023-08-17T07:03:13.767Z,100
2023-08-17T07:04:29.023Z,100
2023-08-17T07:05:45.276Z,100
2023-08-17T07:07:01.506Z,100
2023-08-17T07:08:17.750Z,100
2023-08-17T07:09:33.980Z,100
2023-08-17T07:10:50.228Z,100
2023-08-17T07:12:06.464Z,100
2023-08-17T07:13:22.712Z,100
2023-08-17T07:14:38.950Z,100
2023-08-17T07:15:55.000Z,100
2023-08-17T07:17:11.426Z,100
2023-08-17T07:18:27.671Z,100
2023-08-17T07:19:43.900Z,100
2023-08-17T07:20:59.175Z,100
2023-08-17T07:22:15.402Z,99.6
2023-08-17T07:23:31.650Z,99.7
2023-08-17T07:24:47.881Z,99.8
2023-08-17T07:26:04.128Z,99.7
2023-08-17T07:27:20.364Z,98.6
2023-08-17T07:28:36.613Z,97.8
2023-08-17T07:29:52.848Z,98.7
2023-08-17T07:31:09.000Z,97
2023-08-17T07:32:25.324Z,96.8
2023-08-17T07:33:41.568Z,96.3
2023-08-17T07:34:57.803Z,96.6
2023-08-17T07:36:14.042Z,96.8
2023-08-17T07:37:29.303Z,96.4
2023-08-17T07:38:45.550Z,96.7
2023-08-17T07:40:01.792Z,97.5
2023-08-17T07:41:18.000Z,98.6
2023-08-17T07:42:34.271Z,98.4
2023-08-17T07:43:50.508Z,98.2
2023-08-17T07:45:06.750Z,98.4
2023-08-17T07:46:22.981Z,98.7
2023-08-17T07:47:39.241Z,99.1
2023-08-17T07:48:55.467Z,99.3
2023-08-17T07:50:11.711Z,98.5
2023-08-17T07:51:27.953Z,98.4
2023-08-17T07:52:44.196Z,98.7
2023-08-17T07:53:59.439Z,99
2023-08-17T07:55:15.680Z,99.3
2023-08-17T07:56:31.923Z,99.9
2023-08-17T07:57:48.161Z,99.7
2023-08-17T07:59:04.408Z,99.9
2023-08-17T08:00:20.645Z,99.7
2023-08-17T08:01:36.892Z,99.7
2023-08-17T08:02:53.140Z,99.5
2023-08-17T08:04:09.000Z,99.6
2023-08-17T08:05:25.610Z,99.4
2023-08-17T08:06:41.853Z,99.5
2023-08-17T08:07:58.082Z,99.5
2023-08-17T08:09:14.337Z,99.3
2023-08-17T08:10:29.595Z,98.5
2023-08-17T08:11:45.835Z,98.1
2023-08-17T08:13:02.065Z,98.1
2023-08-17T08:14:18.302Z,98.5
2023-08-17T08:15:34.545Z,99.1
2023-08-17T08:16:50.794Z,97.9
2023-08-17T08:18:07.027Z,98.3
2023-08-17T08:19:23.273Z,98.2
2023-08-17T08:20:39.510Z,98.6
2023-08-17T08:21:55.759Z,98.7
2023-08-17T08:23:11.988Z,99.1
2023-08-17T08:24:28.227Z,99
2023-08-17T08:25:44.480Z,99
2023-08-17T08:26:59.725Z,99.2
2023-08-17T08:28:15.961Z,99.7
2023-08-17T08:29:32.208Z,99.2
2023-08-17T08:30:48.443Z,99.4
2023-08-17T08:32:04.695Z,99.1
2023-08-17T08:33:20.922Z,99.1
2023-08-17T08:34:37.160Z,98.7
2023-08-17T08:35:53.402Z,98.3
2023-08-17T08:37:09.641Z,98.1
2023-08-17T08:38:25.880Z,97.9
2023-08-17T08:39:42.126Z,96.6
2023-08-17T08:40:58.368Z,96.4
2023-08-17T08:42:14.614Z,97.3
2023-08-17T08:43:29.867Z,97.5
2023-08-17T08:44:46.111Z,97.1
2023-08-17T08:46:02.356Z,96.2
2023-08-17T08:47:18.577Z,96.8
2023-08-17T08:48:34.000Z,95.3
2023-08-17T08:49:51.061Z,95.4
2023-08-17T08:51:06.332Z,95.6
2023-08-17T08:52:22.565Z,95.5
2023-08-17T08:53:38.804Z,94.7
2023-08-17T08:54:55.050Z,94.8
2023-08-17T08:56:11.295Z,94.3
2023-08-17T08:57:27.517Z,93.7
2023-08-17T08:58:43.771Z,93.6
2023-08-17T09:00:00.010Z,92.6
2023-08-17T09:01:16.248Z,93.9
2023-08-17T09:02:32.485Z,92.6
2023-08-17T09:03:48.732Z,92.7
2023-08-17T09:05:04.963Z,91.5
2023-08-17T09:06:21.201Z,90.7
2023-08-17T09:07:36.462Z,91.5
2023-08-17T09:08:52.691Z,90.6
2023-08-17T09:10:08.930Z,89.5
2023-08-17T09:11:25.000Z,90.8
2023-08-17T09:12:41.413Z,89.8
2023-08-17T09:13:57.661Z,89
2023-08-17T09:15:13.887Z,88.8
2023-08-17T09:16:30.128Z,86.3
2023-08-17T09:17:46.369Z,87
2023-08-17T09:19:02.618Z,88.7
2023-08-17T09:20:18.850Z,85.3
2023-08-17T09:21:35.086Z,85.8
2023-08-17T09:22:51.328Z,87.6
2023-08-17T09:24:06.595Z,88.4
2023-08-17T09:25:22.827Z,88.8
2023-08-17T09:26:39.063Z,87.5
2023-08-17T09:27:55.300Z,86.6
2023-08-17T09:29:11.553Z,83.2
2023-08-17T09:30:27.777Z,86
2023-08-17T09:31:44.030Z,85.1
2023-08-17T09:33:00.253Z,84.9
2023-08-17T09:34:16.495Z,84.3
2023-08-17T09:35:32.729Z,85.7
2023-08-17T09:36:48.967Z,82.9
2023-08-17T09:38:05.219Z,83.8
2023-08-17T09:39:21.450Z,81.6
2023-08-17T09:40:37.815Z,85.3
2023-08-17T09:41:54.060Z,85.7
2023-08-17T09:43:10.293Z,82.4
2023-08-17T09:44:26.540Z,83.4
2023-08-17T09:45:42.772Z,86.6
2023-08-17T09:46:59.009Z,86.9
2023-08-17T09:48:15.256Z,87.6
2023-08-17T09:49:31.483Z,83.3
2023-08-17T09:50:47.719Z,85.9
2023-08-17T09:52:03.963Z,82
2023-08-17T09:53:20.202Z,81
2023-08-17T09:54:36.439Z,81.1
2023-08-17T09:55:52.672Z,83.8
2023-08-17T09:57:07.944Z,82.3
2023-08-17T09:58:24.173Z,82.3
2023-08-17T09:59:40.423Z,84.2
2023-08-17T10:00:56.650Z,89.2
2023-08-17T10:02:12.900Z,85.4
2023-08-17T10:03:29.128Z,82.7
2023-08-17T10:04:45.000Z,79.9
2023-08-17T10:06:01.613Z,83.3
2023-08-17T10:07:17.846Z,82.2
2023-08-17T10:08:34.081Z,82
2023-08-17T10:09:50.316Z,84.5
2023-08-17T10:11:06.560Z,86
2023-08-17T10:12:22.803Z,81.6
2023-08-17T10:13:38.056Z,81.1
2023-08-17T10:14:54.298Z,80.6
2023-08-17T10:16:10.528Z,77.5
2023-08-17T10:17:26.765Z,80.2
2023-08-17T10:18:43.006Z,79.4
2023-08-17T10:19:59.243Z,79.6
2023-08-17T10:21:15.494Z,80
2023-08-17T10:22:31.728Z,80
2023-08-17T10:23:47.966Z,77.6
2023-08-17T10:25:04.194Z,75
2023-08-17T10:26:20.449Z,75.2
2023-08-17T10:27:36.677Z,79
2023-08-17T10:28:52.912Z,74.5
2023-08-17T10:30:08.170Z,74.1
2023-08-17T10:31:24.407Z,74.4
2023-08-17T10:32:40.651Z,71.7
2023-08-17T10:33:56.885Z,71.7
2023-08-17T10:35:13.000Z,72.8
2023-08-17T10:36:29.361Z,73.2
2023-08-17T10:37:45.610Z,69.6
2023-08-17T10:39:01.848Z,71.8
2023-08-17T10:40:18.081Z,73.1
2023-08-17T10:41:34.324Z,71.3
2023-08-17T10:42:50.564Z,73.3
2023-08-17T10:44:06.803Z,69.6
2023-08-17T10:45:23.039Z,70.3
2023-08-17T10:46:38.297Z,72.3
2023-08-17T10:47:54.533Z,71
2023-08-17T10:49:10.767Z,69
2023-08-17T10:50:27.016Z,68.7
2023-08-17T10:51:43.256Z,70.2
2023-08-17T10:52:59.487Z,69.7
2023-08-17T10:54:15.740Z,69
2023-08-17T10:55:31.962Z,68
2023-08-17T10:56:48.212Z,70.8
2023-08-17T10:58:04.447Z,71.4
2023-08-17T10:59:20.693Z,72.3
2023-08-17T11:00:36.914Z,72.1
2023-08-17T11:01:53.158Z,72.6
2023-08-17T11:03:08.416Z,71.2
2023-08-17T11:04:24.663Z,69.3
2023-08-17T11:05:40.893Z,68.8
2023-08-17T11:06:57.143Z,71.6
2023-08-17T11:08:13.382Z,71.7
2023-08-17T11:09:29.623Z,71.5
2023-08-17T11:10:45.849Z,71.1
2023-08-17T11:12:02.100Z,69.9
2023-08-17T11:13:18.340Z,69.6
2023-08-17T11:14:34.576Z,71.1
2023-08-17T11:15:50.809Z,70.5
2023-08-17T11:17:07.049Z,66.5
2023-08-17T11:18:23.282Z,64.4
2023-08-17T11:19:38.540Z,68.2
2023-08-17T11:20:54.786Z,68.6
2023-08-17T11:22:11.025Z,70.5
2023-08-17T11:23:27.000Z,66.5
2023-08-17T11:24:43.507Z,68.6
2023-08-17T11:25:59.739Z,68.1
2023-08-17T11:27:15.975Z,67.5
2023-08-17T11:28:32.217Z,70.1
2023-08-17T11:29:48.464Z,66.8
2023-08-17T11:31:04.703Z,66.2
2023-08-17T11:32:20.936Z,68.2
2023-08-17T11:33:37.176Z,65.4
2023-08-17T11:34:53.425Z,65.3
2023-08-17T11:36:08.678Z,66.1
2023-08-17T11:37:24.903Z,67.3
2023-08-17T11:38:41.144Z,66.2
2023-08-17T11:39:57.395Z,66.5
2023-08-17T11:41:13.638Z,67.8
2023-08-17T11:42:29.866Z,67.6
2023-08-17T11:43:46.124Z,65.3
2023-08-17T11:45:02.351Z,67
2023-08-17T11:46:18.598Z,65.5
2023-08-17T11:47:34.822Z,65.9
2023-08-17T11:48:51.072Z,65.9
2023-08-17T11:50:07.300Z,64
2023-08-17T11:51:23.546Z,63.3
2023-08-17T11:52:38.804Z,63
2023-08-17T11:53:55.041Z,61.6
2023-08-17T11:55:11.275Z,66.8
2023-08-17T11:56:27.522Z,65.8
2023-08-17T11:57:43.763Z,64.1
2023-08-17T11:59:00.003Z,63.2
2023-08-17T12:00:16.237Z,65.2
2023-08-17T12:01:32.486Z,65.6
2023-08-17T12:02:48.727Z,66.6
2023-08-17T12:04:04.965Z,63.2
2023-08-17T12:05:21.201Z,63.7
2023-08-17T12:06:37.441Z,63.7
2023-08-17T12:07:53.691Z,66.3
2023-08-17T12:09:08.000Z,68.2
2023-08-17T12:10:25.184Z,64.8
2023-08-17T12:11:41.427Z,64.5
2023-08-17T12:12:57.655Z,62.3
2023-08-17T12:14:13.908Z,62
2023-08-17T12:15:30.132Z,63.5
2023-08-17T12:16:46.374Z,63.3
2023-08-17T12:18:02.618Z,62.5
2023-08-17T12:19:18.854Z,64.3
2023-08-17T12:20:35.110Z,66.3
2023-08-17T12:21:51.354Z,66.1
2023-08-17T12:23:07.000Z,62.8
2023-08-17T12:24:23.825Z,63.7
2023-08-17T12:25:39.067Z,62.9
2023-08-17T12:26:55.320Z,62.8
2023-08-17T12:28:11.564Z,62.1
2023-08-17T12:29:27.794Z,63.8
2023-08-17T12:30:44.040Z,63.1
2023-08-17T12:32:00.282Z,61.6
2023-08-17T12:33:16.528Z,59.7
2023-08-17T12:34:32.772Z,62.1
2023-08-17T12:35:48.997Z,61.5
2023-08-17T12:37:05.252Z,61.4
2023-08-17T12:38:21.484Z,61
2023-08-17T12:39:37.721Z,60.8
2023-08-17T12:40:53.953Z,58.5
2023-08-17T12:42:09.210Z,58.2
2023-08-17T12:43:25.445Z,61
2023-08-17T12:44:41.689Z,61.9
2023-08-17T12:45:57.930Z,58
2023-08-17T12:47:14.184Z,61.6
2023-08-17T12:48:30.418Z,60.5
2023-08-17T12:49:46.000Z,60.5
2023-08-17T12:51:02.904Z,61.3
2023-08-17T12:52:19.143Z,58.7
2023-08-17T12:53:35.375Z,58
2023-08-17T12:54:51.614Z,59
2023-08-17T12:56:07.853Z,59.9
2023-08-17T12:57:24.096Z,60.2
2023-08-17T12:58:39.362Z,60.4
2023-08-17T12:59:55.599Z,58.5
2023-08-17T13:01:11.000Z,58.5
2023-08-17T13:02:28.068Z,58.9
2023-08-17T13:03:44.318Z,58.6
2023-08-17T13:05:00.543Z,59.2
2023-08-17T13:06:15.817Z,57.8
2023-08-17T13:07:32.052Z,57.7
2023-08-17T13:08:48.289Z,56.3
2023-08-17T13:10:04.555Z,58.2
2023-08-17T13:11:20.767Z,57
2023-08-17T13:12:37.016Z,56
2023-08-17T13:13:53.247Z,57.1
2023-08-17T13:15:09.486Z,56
2023-08-17T13:16:25.722Z,56.3
2023-08-17T13:17:41.988Z,54.9
2023-08-17T13:18:58.206Z,55.7
2023-08-17T13:20:14.454Z,57.6
2023-08-17T13:21:30.699Z,57.6
2023-08-17T13:22:45.952Z,55.7
2023-08-17T13:24:02.178Z,57.7
2023-08-17T13:25:18.422Z,56
2023-08-17T13:26:34.660Z,56.2
2023-08-17T13:27:50.908Z,56.1
2023-08-17T13:29:07.154Z,57.2
2023-08-17T13:30:23.377Z,60
2023-08-17T13:31:39.634Z,60.2
2023-08-17T13:32:55.856Z,58.9
2023-08-17T13:34:12.094Z,59.6
2023-08-17T13:35:28.340Z,58.4
2023-08-17T13:36:44.576Z,56.1
2023-08-17T13:38:00.822Z,56.5
2023-08-17T13:39:16.077Z,57
2023-08-17T13:40:32.327Z,58.8
2023-08-17T13:41:48.558Z,58.9
2023-08-17T13:43:04.798Z,58.5
2023-08-17T13:44:21.035Z,59.1
2023-08-17T13:45:37.267Z,57.6
2023-08-17T13:46:53.520Z,57.3
2023-08-17T13:48:09.763Z,57.1
2023-08-17T13:49:25.990Z,55.3
2023-08-17T13:50:42.227Z,57.5
2023-08-17T13:51:58.480Z,56.5
2023-08-17T13:53:14.716Z,57
2023-08-17T13:54:30.962Z,57.7
2023-08-17T13:55:46.216Z,58.1
2023-08-17T13:57:02.446Z,59
2023-08-17T13:58:18.687Z,57.7
2023-08-17T13:59:34.935Z,60
2023-08-17T14:00:51.169Z,56
2023-08-17T14:02:07.406Z,56.1
2023-08-17T14:03:23.649Z,56.7
2023-08-17T14:04:39.896Z,55.6
2023-08-17T14:05:56.119Z,54.8
2023-08-17T14:07:12.360Z,56.1
2023-08-17T14:08:28.602Z,55.3
2023-08-17T14:09:44.835Z,56.1
2023-08-17T14:11:01.089Z,58.6
2023-08-17T14:12:16.341Z,57.2
2023-08-17T14:13:32.572Z,59.6
2023-08-17T14:14:48.806Z,59.9
2023-08-17T14:16:05.062Z,60.5
2023-08-17T14:17:21.303Z,64.4
2023-08-17T14:18:37.539Z,64
2023-08-17T14:19:53.780Z,63.8
2023-08-17T14:21:10.014Z,66.3
2023-08-17T14:22:26.250Z,68
2023-08-17T14:23:42.488Z,68.7
2023-08-17T14:24:58.727Z,65.4
2023-08-17T14:26:14.966Z,63
2023-08-17T14:27:31.204Z,63.6
2023-08-17T14:28:46.477Z,66.2
2023-08-17T14:30:02.712Z,69.2
2023-08-17T14:31:18.960Z,66
2023-08-17T14:32:35.183Z,67
2023-08-17T14:33:51.434Z,65.4
2023-08-17T14:35:07.673Z,66.9
2023-08-17T14:36:23.000Z,65.5
2023-08-17T14:37:40.155Z,65
2023-08-17T14:38:56.399Z,64.5
2023-08-17T14:40:12.645Z,65
2023-08-17T14:41:28.864Z,66.1
2023-08-17T14:42:45.117Z,65.5
2023-08-17T14:44:01.342Z,65.6
2023-08-17T14:45:16.613Z,66.4
2023-08-17T14:46:32.841Z,65.6
2023-08-17T14:47:49.088Z,65.7
2023-08-17T14:49:05.332Z,65
2023-08-17T14:50:21.561Z,66.9
2023-08-17T14:51:37.798Z,68.4
2023-08-17T14:52:54.057Z,67.5
2023-08-17T14:54:10.278Z,68.3
2023-08-17T14:55:26.546Z,69.6
2023-08-17T14:56:42.762Z,67
2023-08-17T14:57:59.012Z,65.5
2023-08-17T14:59:15.244Z,69.6
2023-08-17T15:00:31.490Z,67.2
2023-08-17T15:01:46.733Z,67.7
2023-08-17T15:03:03.001Z,69.3
2023-08-17T15:04:19.223Z,68.4
2023-08-17T15:05:35.470Z,66.8
2023-08-17T15:06:51.698Z,67.8
2023-08-17T15:08:07.950Z,69.5
2023-08-17T15:09:24.184Z,70.6
2023-08-17T15:10:40.419Z,69.4
2023-08-17T15:11:56.673Z,68.7
2023-08-17T15:13:12.913Z,67.2
2023-08-17T15:14:29.153Z,68.9
2023-08-17T15:15:45.392Z,70
2023-08-17T15:17:01.628Z,67.8
2023-08-17T15:18:16.879Z,68.9
2023-08-17T15:19:33.110Z,70.8
2023-08-17T15:20:49.367Z,67.8
2023-08-17T15:22:05.592Z,68.3
2023-08-17T15:23:21.837Z,67.4
2023-08-17T15:24:38.075Z,67.7
2023-08-17T15:25:54.313Z,69.5
2023-08-17T15:27:10.551Z,69.6
2023-08-17T15:28:26.803Z,70
2023-08-17T15:29:43.029Z,69.9
2023-08-17T15:30:59.280Z,70.9
2023-08-17T15:32:15.507Z,70.9
2023-08-17T15:33:31.758Z,71.1
2023-08-17T15:34:47.004Z,72
2023-08-17T15:36:03.256Z,72.4
2023-08-17T15:37:19.489Z,70.1
2023-08-17T15:38:35.734Z,70.5
2023-08-17T15:39:51.973Z,71.4
2023-08-17T15:41:08.201Z,71.8
2023-08-17T15:42:24.439Z,72.3
2023-08-17T15:43:40.696Z,72.4
2023-08-17T15:44:56.917Z,73.2
2023-08-17T15:46:13.155Z,71.9
2023-08-17T15:47:29.398Z,73.6
2023-08-17T15:48:45.647Z,73.3
2023-08-17T15:50:01.880Z,72.7
2023-08-17T15:51:18.257Z,73
2023-08-17T15:52:34.495Z,73
2023-08-17T15:53:50.714Z,74.7
2023-08-17T15:55:06.981Z,74.3
2023-08-17T15:56:23.203Z,72.7
2023-08-17T15:57:39.451Z,73.4
2023-08-17T15:58:55.693Z,72.8
2023-08-17T16:00:11.923Z,73.3
2023-08-17T16:01:28.156Z,73
2023-08-17T16:02:44.407Z,73
2023-08-17T16:04:00.627Z,73.3
2023-08-17T16:05:16.878Z,73.3
2023-08-17T16:06:33.126Z,74.8
2023-08-17T16:07:48.369Z,75.3
2023-08-17T16:09:04.611Z,76.4
2023-08-17T16:10:20.855Z,76.6
2023-08-17T16:11:37.095Z,75.2
2023-08-17T16:12:53.328Z,73.8
2023-08-17T16:14:09.561Z,74.8
2023-08-17T16:15:25.818Z,75.2
2023-08-17T16:16:42.058Z,75
2023-08-17T16:17:58.284Z,74.8
2023-08-17T16:19:14.533Z,75
2023-08-17T16:20:30.762Z,74.7
2023-08-17T16:21:47.011Z,75.3
2023-08-17T16:23:03.232Z,75.7
2023-08-17T16:24:18.510Z,76.2
2023-08-17T16:25:34.742Z,77.4
2023-08-17T16:26:50.970Z,77.1
2023-08-17T16:28:07.205Z,77.4
2023-08-17T16:29:23.467Z,77.6
2023-08-17T16:30:39.707Z,77.7
2023-08-17T16:31:55.921Z,78.1
2023-08-17T16:33:12.188Z,78.4
2023-08-17T16:34:28.417Z,78.7
2023-08-17T16:35:44.653Z,79.2
2023-08-17T16:37:00.896Z,79.3
2023-08-17T16:38:17.136Z,79.4
2023-08-17T16:39:33.374Z,79.6
2023-08-17T16:40:48.619Z,79.5
2023-08-17T16:42:04.850Z,79.9
2023-08-17T16:43:21.091Z,80.2
2023-08-17T16:44:37.347Z,80.3
2023-08-17T16:45:53.570Z,80.6
2023-08-17T16:47:09.818Z,80.9
2023-08-17T16:48:26.055Z,81.1
2023-08-17T16:49:42.296Z,81.3
2023-08-17T16:50:58.527Z,81.5
2023-08-17T16:52:14.780Z,81.9
2023-08-17T16:53:31.002Z,82.1
2023-08-17T16:54:47.270Z,82.3
2023-08-17T16:56:03.495Z,82.9
2023-08-17T16:57:18.743Z,82.7
2023-08-17T16:58:34.980Z,82.8
2023-08-17T16:59:51.217Z,83
2023-08-17T17:01:07.451Z,83.2
2023-08-17T17:02:23.689Z,83.6
2023-08-17T17:03:39.932Z,83.7
2023-08-17T17:04:56.170Z,83.8
2023-08-17T17:06:12.408Z,83.8